sensor_id;sensor_type;location;lat;lon;timestamp;P1;durP1;ratioP1;P2;durP2;ratioP2
7029;SDS011;3556;53.500;10.176;2024-03-08T00:01:09;38.57;;;17.60;;
7029;SDS011;3556;53.500;10.176;2024-03-08T00:03:35;37.20;;;16.70;;
7029;SDS011;3556;53.500;10.176;2024-03-08T00:06:00;33.00;;;15.27;;
7029;SDS011;3556;53.500;10.176;2024-03-08T00:08:26;31.53;;;16.17;;
7029;SDS011;3556;53.500;10.176;2024-03-08T00:10:52;39.67;;;17.97;;
7029;SDS011;3556;53.500;10.176;2024-03-08T00:13:17;45.70;;;18.73;;
7029;SDS011;3556;53.500;10.176;2024-03-08T00:15:43;37.73;;;17.07;;
7029;SDS011;3556;53.500;10.176;2024-03-08T00:18:09;32.23;;;15.80;;
7029;SDS011;3556;53.500;10.176;2024-03-08T00:20:36;36.17;;;17.23;;
7029;SDS011;3556;53.500;10.176;2024-03-08T00:23:02;37.80;;;17.10;;
7029;SDS011;3556;53.500;10.176;2024-03-08T00:25:28;37.17;;;17.43;;
7029;SDS011;3556;53.500;10.176;2024-03-08T00:27:53;37.20;;;18.00;;
7029;SDS011;3556;53.500;10.176;2024-03-08T00:30:22;36.77;;;16.93;;
7029;SDS011;3556;53.500;10.176;2024-03-08T00:32:48;35.73;;;15.93;;
7029;SDS011;3556;53.500;10.176;2024-03-08T00:35:14;40.97;;;17.60;;
7029;SDS011;3556;53.500;10.176;2024-03-08T00:37:40;35.50;;;16.70;;
7029;SDS011;3556;53.500;10.176;2024-03-08T00:40:07;44.43;;;16.87;;
7029;SDS011;3556;53.500;10.176;2024-03-08T00:42:34;36.80;;;16.97;;
7029;SDS011;3556;53.500;10.176;2024-03-08T00:45:00;38.17;;;17.43;;
7029;SDS011;3556;53.500;10.176;2024-03-08T00:47:25;42.07;;;17.87;;
7029;SDS011;3556;53.500;10.176;2024-03-08T00:49:52;37.50;;;16.27;;
7029;SDS011;3556;53.500;10.176;2024-03-08T00:52:18;37.10;;;17.00;;
7029;SDS011;3556;53.500;10.176;2024-03-08T00:54:44;38.93;;;17.80;;
7029;SDS011;3556;53.500;10.176;2024-03-08T00:57:10;39.47;;;16.90;;
7029;SDS011;3556;53.500;10.176;2024-03-08T00:59:37;38.03;;;16.70;;
7029;SDS011;3556;53.500;10.176;2024-03-08T01:02:03;40.10;;;16.83;;
7029;SDS011;3556;53.500;10.176;2024-03-08T01:04:29;32.30;;;16.47;;
7029;SDS011;3556;53.500;10.176;2024-03-08T01:06:58;42.13;;;17.57;;
7029;SDS011;3556;53.500;10.176;2024-03-08T01:09:24;40.93;;;17.17;;
7029;SDS011;3556;53.500;10.176;2024-03-08T01:11:51;41.30;;;17.13;;
7029;SDS011;3556;53.500;10.176;2024-03-08T01:14:21;43.17;;;18.27;;
7029;SDS011;3556;53.500;10.176;2024-03-08T01:16:48;37.03;;;16.80;;
7029;SDS011;3556;53.500;10.176;2024-03-08T01:19:14;37.73;;;17.00;;
7029;SDS011;3556;53.500;10.176;2024-03-08T01:21:40;42.73;;;17.77;;
7029;SDS011;3556;53.500;10.176;2024-03-08T01:24:06;41.90;;;17.80;;
7029;SDS011;3556;53.500;10.176;2024-03-08T01:26:32;38.00;;;17.20;;
7029;SDS011;3556;53.500;10.176;2024-03-08T01:28:59;40.77;;;17.37;;
7029;SDS011;3556;53.500;10.176;2024-03-08T01:31:25;37.50;;;17.03;;
7029;SDS011;3556;53.500;10.176;2024-03-08T01:33:50;45.90;;;17.80;;
7029;SDS011;3556;53.500;10.176;2024-03-08T01:36:16;38.93;;;17.20;;
7029;SDS011;3556;53.500;10.176;2024-03-08T01:38:44;38.53;;;17.23;;
7029;SDS011;3556;53.500;10.176;2024-03-08T01:41:10;40.43;;;18.70;;
7029;SDS011;3556;53.500;10.176;2024-03-08T01:43:37;44.00;;;17.83;;
7029;SDS011;3556;53.500;10.176;2024-03-08T01:46:03;41.53;;;17.70;;
7029;SDS011;3556;53.500;10.176;2024-03-08T01:48:31;41.77;;;17.73;;
7029;SDS011;3556;53.500;10.176;2024-03-08T01:50:57;45.03;;;17.83;;
7029;SDS011;3556;53.500;10.176;2024-03-08T01:53:26;42.83;;;18.57;;
7029;SDS011;3556;53.500;10.176;2024-03-08T01:55:54;41.00;;;17.10;;
7029;SDS011;3556;53.500;10.176;2024-03-08T01:58:22;41.53;;;18.20;;
7029;SDS011;3556;53.500;10.176;2024-03-08T02:00:48;36.83;;;16.33;;
7029;SDS011;3556;53.500;10.176;2024-03-08T02:03:15;42.53;;;17.97;;
7029;SDS011;3556;53.500;10.176;2024-03-08T02:05:44;47.73;;;17.73;;
7029;SDS011;3556;53.500;10.176;2024-03-08T02:08:09;37.37;;;17.13;;
7029;SDS011;3556;53.500;10.176;2024-03-08T02:10:41;43.57;;;18.03;;
7029;SDS011;3556;53.500;10.176;2024-03-08T02:13:08;38.00;;;18.00;;
7029;SDS011;3556;53.500;10.176;2024-03-08T02:15:51;48.50;;;17.97;;
7029;SDS011;3556;53.500;10.176;2024-03-08T02:18:17;37.47;;;17.10;;
7029;SDS011;3556;53.500;10.176;2024-03-08T02:20:43;44.13;;;17.43;;
7029;SDS011;3556;53.500;10.176;2024-03-08T02:23:09;45.53;;;18.87;;
7029;SDS011;3556;53.500;10.176;2024-03-08T02:25:35;45.57;;;17.60;;
7029;SDS011;3556;53.500;10.176;2024-03-08T02:28:01;44.70;;;17.90;;
7029;SDS011;3556;53.500;10.176;2024-03-08T02:30:26;40.60;;;17.23;;
7029;SDS011;3556;53.500;10.176;2024-03-08T02:32:54;44.90;;;18.43;;
7029;SDS011;3556;53.500;10.176;2024-03-08T02:35:20;43.63;;;17.97;;
7029;SDS011;3556;53.500;10.176;2024-03-08T02:37:46;45.80;;;18.63;;
7029;SDS011;3556;53.500;10.176;2024-03-08T02:40:12;45.03;;;18.50;;
7029;SDS011;3556;53.500;10.176;2024-03-08T02:42:39;43.60;;;18.30;;
7029;SDS011;3556;53.500;10.176;2024-03-08T02:45:04;49.90;;;18.07;;
7029;SDS011;3556;53.500;10.176;2024-03-08T02:47:31;40.53;;;17.30;;
7029;SDS011;3556;53.500;10.176;2024-03-08T02:49:57;43.33;;;18.20;;
7029;SDS011;3556;53.500;10.176;2024-03-08T02:52:22;45.40;;;18.20;;
7029;SDS011;3556;53.500;10.176;2024-03-08T02:54:48;44.90;;;18.97;;
7029;SDS011;3556;53.500;10.176;2024-03-08T02:57:14;39.47;;;17.27;;
7029;SDS011;3556;53.500;10.176;2024-03-08T02:59:40;50.83;;;18.63;;
7029;SDS011;3556;53.500;10.176;2024-03-08T03:02:06;46.90;;;19.00;;
7029;SDS011;3556;53.500;10.176;2024-03-08T03:04:32;46.73;;;19.03;;
7029;SDS011;3556;53.500;10.176;2024-03-08T03:06:59;46.37;;;18.70;;
7029;SDS011;3556;53.500;10.176;2024-03-08T03:09:25;42.57;;;17.80;;
7029;SDS011;3556;53.500;10.176;2024-03-08T03:11:53;48.07;;;19.40;;
7029;SDS011;3556;53.500;10.176;2024-03-08T03:14:20;45.80;;;18.20;;
7029;SDS011;3556;53.500;10.176;2024-03-08T03:16:46;50.20;;;19.80;;
7029;SDS011;3556;53.500;10.176;2024-03-08T03:19:12;44.23;;;19.07;;
7029;SDS011;3556;53.500;10.176;2024-03-08T03:21:37;52.57;;;18.93;;
7029;SDS011;3556;53.500;10.176;2024-03-08T03:24:04;47.07;;;18.10;;
7029;SDS011;3556;53.500;10.176;2024-03-08T03:26:35;46.37;;;18.03;;
7029;SDS011;3556;53.500;10.176;2024-03-08T03:29:05;47.30;;;19.27;;
7029;SDS011;3556;53.500;10.176;2024-03-08T03:31:31;58.93;;;20.50;;
7029;SDS011;3556;53.500;10.176;2024-03-08T03:33:57;53.77;;;20.10;;
7029;SDS011;3556;53.500;10.176;2024-03-08T03:36:28;49.67;;;19.60;;
7029;SDS011;3556;53.500;10.176;2024-03-08T03:38:55;46.17;;;19.10;;
7029;SDS011;3556;53.500;10.176;2024-03-08T03:41:30;49.07;;;18.27;;
7029;SDS011;3556;53.500;10.176;2024-03-08T03:43:56;47.17;;;19.20;;
7029;SDS011;3556;53.500;10.176;2024-03-08T03:46:22;50.77;;;20.90;;
7029;SDS011;3556;53.500;10.176;2024-03-08T03:48:47;53.67;;;19.80;;
7029;SDS011;3556;53.500;10.176;2024-03-08T03:51:13;43.53;;;18.00;;
7029;SDS011;3556;53.500;10.176;2024-03-08T03:53:40;49.93;;;19.83;;
7029;SDS011;3556;53.500;10.176;2024-03-08T03:56:06;54.57;;;20.23;;
7029;SDS011;3556;53.500;10.176;2024-03-08T03:58:32;52.30;;;19.60;;
7029;SDS011;3556;53.500;10.176;2024-03-08T04:00:58;54.97;;;20.93;;
7029;SDS011;3556;53.500;10.176;2024-03-08T04:03:24;50.47;;;18.63;;
7029;SDS011;3556;53.500;10.176;2024-03-08T04:05:49;54.27;;;18.87;;
7029;SDS011;3556;53.500;10.176;2024-03-08T04:08:15;49.13;;;19.87;;
7029;SDS011;3556;53.500;10.176;2024-03-08T04:10:42;49.67;;;19.33;;
7029;SDS011;3556;53.500;10.176;2024-03-08T04:13:07;44.93;;;19.30;;
7029;SDS011;3556;53.500;10.176;2024-03-08T04:15:34;45.00;;;17.20;;
7029;SDS011;3556;53.500;10.176;2024-03-08T04:18:00;46.30;;;18.90;;
7029;SDS011;3556;53.500;10.176;2024-03-08T04:20:26;49.07;;;20.10;;
7029;SDS011;3556;53.500;10.176;2024-03-08T04:22:52;60.63;;;19.70;;
7029;SDS011;3556;53.500;10.176;2024-03-08T04:25:18;50.03;;;18.37;;
7029;SDS011;3556;53.500;10.176;2024-03-08T04:27:43;50.87;;;18.97;;
7029;SDS011;3556;53.500;10.176;2024-03-08T04:30:10;51.80;;;20.30;;
7029;SDS011;3556;53.500;10.176;2024-03-08T04:32:36;51.80;;;19.83;;
7029;SDS011;3556;53.500;10.176;2024-03-08T04:35:02;51.47;;;20.40;;
7029;SDS011;3556;53.500;10.176;2024-03-08T04:37:28;49.37;;;19.20;;
7029;SDS011;3556;53.500;10.176;2024-03-08T04:39:54;49.83;;;19.13;;
7029;SDS011;3556;53.500;10.176;2024-03-08T04:42:20;54.07;;;20.30;;
7029;SDS011;3556;53.500;10.176;2024-03-08T04:44:46;46.80;;;19.10;;
7029;SDS011;3556;53.500;10.176;2024-03-08T04:47:12;50.30;;;19.10;;
7029;SDS011;3556;53.500;10.176;2024-03-08T04:49:38;49.97;;;18.93;;
7029;SDS011;3556;53.500;10.176;2024-03-08T04:52:03;50.83;;;18.53;;
7029;SDS011;3556;53.500;10.176;2024-03-08T04:54:29;45.90;;;18.83;;
7029;SDS011;3556;53.500;10.176;2024-03-08T04:56:55;52.10;;;19.40;;
7029;SDS011;3556;53.500;10.176;2024-03-08T04:59:21;49.00;;;19.20;;
7029;SDS011;3556;53.500;10.176;2024-03-08T05:01:47;46.43;;;18.70;;
7029;SDS011;3556;53.500;10.176;2024-03-08T05:04:13;53.77;;;20.30;;
7029;SDS011;3556;53.500;10.176;2024-03-08T05:06:39;54.40;;;19.30;;
7029;SDS011;3556;53.500;10.176;2024-03-08T05:09:04;49.30;;;18.73;;
7029;SDS011;3556;53.500;10.176;2024-03-08T05:11:39;44.90;;;18.40;;
7029;SDS011;3556;53.500;10.176;2024-03-08T05:14:06;52.33;;;19.60;;
7029;SDS011;3556;53.500;10.176;2024-03-08T05:16:31;49.70;;;19.17;;
7029;SDS011;3556;53.500;10.176;2024-03-08T05:18:57;56.87;;;20.20;;
7029;SDS011;3556;53.500;10.176;2024-03-08T05:21:22;53.57;;;19.70;;
7029;SDS011;3556;53.500;10.176;2024-03-08T05:23:48;45.50;;;18.57;;
7029;SDS011;3556;53.500;10.176;2024-03-08T05:26:15;44.63;;;19.60;;
7029;SDS011;3556;53.500;10.176;2024-03-08T05:28:41;47.03;;;18.60;;
7029;SDS011;3556;53.500;10.176;2024-03-08T05:31:07;53.10;;;19.90;;
7029;SDS011;3556;53.500;10.176;2024-03-08T05:33:33;49.87;;;19.47;;
7029;SDS011;3556;53.500;10.176;2024-03-08T05:36:01;50.03;;;18.63;;
7029;SDS011;3556;53.500;10.176;2024-03-08T05:38:27;48.50;;;19.50;;
7029;SDS011;3556;53.500;10.176;2024-03-08T05:40:53;54.70;;;20.10;;
7029;SDS011;3556;53.500;10.176;2024-03-08T05:43:20;55.87;;;19.90;;
7029;SDS011;3556;53.500;10.176;2024-03-08T05:45:46;50.30;;;20.13;;
7029;SDS011;3556;53.500;10.176;2024-03-08T05:48:13;53.40;;;18.60;;
7029;SDS011;3556;53.500;10.176;2024-03-08T05:50:38;55.57;;;20.90;;
7029;SDS011;3556;53.500;10.176;2024-03-08T05:53:04;55.10;;;21.47;;
7029;SDS011;3556;53.500;10.176;2024-03-08T05:55:32;55.60;;;19.80;;
7029;SDS011;3556;53.500;10.176;2024-03-08T05:58:01;57.40;;;20.80;;
7029;SDS011;3556;53.500;10.176;2024-03-08T06:00:27;59.13;;;20.37;;
7029;SDS011;3556;53.500;10.176;2024-03-08T06:02:52;48.30;;;19.30;;
7029;SDS011;3556;53.500;10.176;2024-03-08T06:05:18;55.13;;;19.07;;
7029;SDS011;3556;53.500;10.176;2024-03-08T06:07:44;47.87;;;19.47;;
7029;SDS011;3556;53.500;10.176;2024-03-08T06:10:10;57.40;;;21.10;;
7029;SDS011;3556;53.500;10.176;2024-03-08T06:12:39;51.50;;;20.90;;
7029;SDS011;3556;53.500;10.176;2024-03-08T06:15:06;60.77;;;20.10;;
7029;SDS011;3556;53.500;10.176;2024-03-08T06:17:33;56.57;;;20.90;;
7029;SDS011;3556;53.500;10.176;2024-03-08T06:20:00;55.20;;;21.17;;
7029;SDS011;3556;53.500;10.176;2024-03-08T06:22:25;58.60;;;20.47;;
7029;SDS011;3556;53.500;10.176;2024-03-08T06:24:51;54.10;;;20.57;;
7029;SDS011;3556;53.500;10.176;2024-03-08T06:27:19;58.77;;;21.00;;
7029;SDS011;3556;53.500;10.176;2024-03-08T06:29:44;56.57;;;21.37;;
7029;SDS011;3556;53.500;10.176;2024-03-08T06:32:10;52.10;;;20.47;;
7029;SDS011;3556;53.500;10.176;2024-03-08T06:34:36;50.17;;;20.70;;
7029;SDS011;3556;53.500;10.176;2024-03-08T06:37:01;61.30;;;21.10;;
7029;SDS011;3556;53.500;10.176;2024-03-08T06:39:27;65.63;;;21.27;;
7029;SDS011;3556;53.500;10.176;2024-03-08T06:41:56;53.80;;;20.13;;
7029;SDS011;3556;53.500;10.176;2024-03-08T06:44:22;70.30;;;21.10;;
7029;SDS011;3556;53.500;10.176;2024-03-08T06:46:48;50.87;;;21.03;;
7029;SDS011;3556;53.500;10.176;2024-03-08T06:49:14;56.37;;;21.57;;
7029;SDS011;3556;53.500;10.176;2024-03-08T06:51:40;62.07;;;21.30;;
7029;SDS011;3556;53.500;10.176;2024-03-08T06:54:06;52.73;;;21.60;;
7029;SDS011;3556;53.500;10.176;2024-03-08T06:56:34;61.97;;;21.60;;
7029;SDS011;3556;53.500;10.176;2024-03-08T06:59:00;51.73;;;21.57;;
7029;SDS011;3556;53.500;10.176;2024-03-08T07:01:28;52.07;;;20.80;;
7029;SDS011;3556;53.500;10.176;2024-03-08T07:03:57;62.43;;;21.90;;
7029;SDS011;3556;53.500;10.176;2024-03-08T07:06:23;59.03;;;22.00;;
7029;SDS011;3556;53.500;10.176;2024-03-08T07:08:48;60.50;;;22.37;;
7029;SDS011;3556;53.500;10.176;2024-03-08T07:11:14;61.00;;;23.77;;
7029;SDS011;3556;53.500;10.176;2024-03-08T07:13:43;59.57;;;24.10;;
7029;SDS011;3556;53.500;10.176;2024-03-08T07:16:10;62.27;;;23.00;;
7029;SDS011;3556;53.500;10.176;2024-03-08T07:18:37;57.90;;;22.53;;
7029;SDS011;3556;53.500;10.176;2024-03-08T07:21:05;52.83;;;21.30;;
7029;SDS011;3556;53.500;10.176;2024-03-08T07:23:30;60.93;;;22.97;;
7029;SDS011;3556;53.500;10.176;2024-03-08T07:26:15;58.63;;;23.07;;
7029;SDS011;3556;53.500;10.176;2024-03-08T07:28:41;56.57;;;22.30;;
7029;SDS011;3556;53.500;10.176;2024-03-08T07:31:07;55.30;;;21.40;;
7029;SDS011;3556;53.500;10.176;2024-03-08T07:33:41;58.07;;;22.90;;
7029;SDS011;3556;53.500;10.176;2024-03-08T07:36:07;54.50;;;22.27;;
7029;SDS011;3556;53.500;10.176;2024-03-08T07:38:33;60.23;;;23.07;;
7029;SDS011;3556;53.500;10.176;2024-03-08T07:40:59;54.43;;;20.63;;
7029;SDS011;3556;53.500;10.176;2024-03-08T07:43:25;52.93;;;20.50;;
7029;SDS011;3556;53.500;10.176;2024-03-08T07:45:52;57.60;;;22.30;;
7029;SDS011;3556;53.500;10.176;2024-03-08T07:48:20;50.30;;;20.90;;
7029;SDS011;3556;53.500;10.176;2024-03-08T07:50:46;49.70;;;19.60;;
7029;SDS011;3556;53.500;10.176;2024-03-08T07:53:11;45.00;;;19.13;;
7029;SDS011;3556;53.500;10.176;2024-03-08T07:55:37;48.40;;;22.03;;
7029;SDS011;3556;53.500;10.176;2024-03-08T07:58:04;53.80;;;22.23;;
7029;SDS011;3556;53.500;10.176;2024-03-08T08:00:31;48.40;;;20.80;;
7029;SDS011;3556;53.500;10.176;2024-03-08T08:02:57;49.97;;;18.47;;
7029;SDS011;3556;53.500;10.176;2024-03-08T08:05:22;45.40;;;19.73;;
7029;SDS011;3556;53.500;10.176;2024-03-08T08:07:48;55.67;;;21.70;;
7029;SDS011;3556;53.500;10.176;2024-03-08T08:10:14;44.50;;;20.00;;
7029;SDS011;3556;53.500;10.176;2024-03-08T08:12:47;48.13;;;21.63;;
7029;SDS011;3556;53.500;10.176;2024-03-08T08:15:19;49.60;;;20.70;;
7029;SDS011;3556;53.500;10.176;2024-03-08T08:17:45;50.23;;;22.20;;
7029;SDS011;3556;53.500;10.176;2024-03-08T08:20:11;48.07;;;21.10;;
7029;SDS011;3556;53.500;10.176;2024-03-08T08:22:40;44.47;;;19.57;;
7029;SDS011;3556;53.500;10.176;2024-03-08T08:25:08;46.00;;;19.67;;
7029;SDS011;3556;53.500;10.176;2024-03-08T08:27:35;60.90;;;21.20;;
7029;SDS011;3556;53.500;10.176;2024-03-08T08:30:04;43.07;;;19.50;;
7029;SDS011;3556;53.500;10.176;2024-03-08T08:32:33;49.77;;;21.60;;
7029;SDS011;3556;53.500;10.176;2024-03-08T08:35:00;45.60;;;20.73;;
7029;SDS011;3556;53.500;10.176;2024-03-08T08:37:25;44.33;;;20.17;;
7029;SDS011;3556;53.500;10.176;2024-03-08T08:39:51;46.27;;;21.23;;
7029;SDS011;3556;53.500;10.176;2024-03-08T08:42:17;43.90;;;20.63;;
7029;SDS011;3556;53.500;10.176;2024-03-08T08:44:43;48.77;;;21.13;;
7029;SDS011;3556;53.500;10.176;2024-03-08T08:47:08;48.17;;;21.17;;
7029;SDS011;3556;53.500;10.176;2024-03-08T08:49:34;43.17;;;20.33;;
7029;SDS011;3556;53.500;10.176;2024-03-08T08:52:00;45.10;;;20.83;;
7029;SDS011;3556;53.500;10.176;2024-03-08T08:54:26;43.87;;;20.17;;
7029;SDS011;3556;53.500;10.176;2024-03-08T08:56:52;41.87;;;20.60;;
7029;SDS011;3556;53.500;10.176;2024-03-08T08:59:18;43.63;;;20.27;;
7029;SDS011;3556;53.500;10.176;2024-03-08T09:01:45;44.27;;;20.27;;
7029;SDS011;3556;53.500;10.176;2024-03-08T09:04:15;42.23;;;20.33;;
7029;SDS011;3556;53.500;10.176;2024-03-08T09:06:41;44.50;;;19.57;;
7029;SDS011;3556;53.500;10.176;2024-03-08T09:09:07;41.73;;;19.90;;
7029;SDS011;3556;53.500;10.176;2024-03-08T09:11:38;40.67;;;18.90;;
7029;SDS011;3556;53.500;10.176;2024-03-08T09:14:07;40.43;;;19.00;;
7029;SDS011;3556;53.500;10.176;2024-03-08T09:16:33;42.60;;;19.60;;
7029;SDS011;3556;53.500;10.176;2024-03-08T09:18:59;40.67;;;19.30;;
7029;SDS011;3556;53.500;10.176;2024-03-08T09:21:25;38.53;;;20.33;;
7029;SDS011;3556;53.500;10.176;2024-03-08T09:23:52;43.63;;;20.43;;
7029;SDS011;3556;53.500;10.176;2024-03-08T09:26:18;40.60;;;20.10;;
7029;SDS011;3556;53.500;10.176;2024-03-08T09:28:44;40.33;;;19.80;;
7029;SDS011;3556;53.500;10.176;2024-03-08T09:31:10;41.50;;;19.87;;
7029;SDS011;3556;53.500;10.176;2024-03-08T09:33:36;39.53;;;18.60;;
7029;SDS011;3556;53.500;10.176;2024-03-08T09:36:04;51.53;;;20.90;;
7029;SDS011;3556;53.500;10.176;2024-03-08T09:38:32;35.27;;;18.10;;
7029;SDS011;3556;53.500;10.176;2024-03-08T09:40:59;37.50;;;18.70;;
7029;SDS011;3556;53.500;10.176;2024-03-08T09:43:26;40.97;;;19.87;;
7029;SDS011;3556;53.500;10.176;2024-03-08T09:45:55;36.13;;;18.67;;
7029;SDS011;3556;53.500;10.176;2024-03-08T09:48:22;39.83;;;18.90;;
7029;SDS011;3556;53.500;10.176;2024-03-08T09:50:48;45.40;;;19.53;;
7029;SDS011;3556;53.500;10.176;2024-03-08T09:53:14;39.23;;;18.30;;
7029;SDS011;3556;53.500;10.176;2024-03-08T09:55:40;35.33;;;18.90;;
7029;SDS011;3556;53.500;10.176;2024-03-08T09:58:10;36.67;;;19.13;;
7029;SDS011;3556;53.500;10.176;2024-03-08T10:00:55;37.13;;;18.70;;
7029;SDS011;3556;53.500;10.176;2024-03-08T10:03:22;40.30;;;19.80;;
7029;SDS011;3556;53.500;10.176;2024-03-08T10:05:48;40.93;;;19.40;;
7029;SDS011;3556;53.500;10.176;2024-03-08T10:08:14;40.57;;;20.30;;
7029;SDS011;3556;53.500;10.176;2024-03-08T10:10:39;37.93;;;20.30;;
7029;SDS011;3556;53.500;10.176;2024-03-08T10:13:08;39.53;;;20.27;;
7029;SDS011;3556;53.500;10.176;2024-03-08T10:15:36;39.00;;;19.67;;
7029;SDS011;3556;53.500;10.176;2024-03-08T10:18:03;38.90;;;20.80;;
7029;SDS011;3556;53.500;10.176;2024-03-08T10:20:32;38.37;;;19.37;;
7029;SDS011;3556;53.500;10.176;2024-03-08T10:23:01;36.67;;;17.87;;
7029;SDS011;3556;53.500;10.176;2024-03-08T10:25:30;33.40;;;18.67;;
7029;SDS011;3556;53.500;10.176;2024-03-08T10:27:59;41.50;;;19.73;;
7029;SDS011;3556;53.500;10.176;2024-03-08T10:30:25;37.80;;;19.53;;
7029;SDS011;3556;53.500;10.176;2024-03-08T10:32:51;37.70;;;19.30;;
7029;SDS011;3556;53.500;10.176;2024-03-08T10:35:16;35.63;;;19.17;;
7029;SDS011;3556;53.500;10.176;2024-03-08T10:37:46;33.17;;;18.73;;
7029;SDS011;3556;53.500;10.176;2024-03-08T10:40:15;38.93;;;18.67;;
7029;SDS011;3556;53.500;10.176;2024-03-08T10:42:49;39.23;;;18.90;;
7029;SDS011;3556;53.500;10.176;2024-03-08T10:47:59;36.80;;;18.50;;
7029;SDS011;3556;53.500;10.176;2024-03-08T10:50:35;30.90;;;16.90;;
7029;SDS011;3556;53.500;10.176;2024-03-08T10:53:03;40.30;;;16.47;;
7029;SDS011;3556;53.500;10.176;2024-03-08T10:55:31;33.83;;;17.47;;
7029;SDS011;3556;53.500;10.176;2024-03-08T10:57:59;32.63;;;17.13;;
7029;SDS011;3556;53.500;10.176;2024-03-08T11:00:25;35.87;;;18.70;;
7029;SDS011;3556;53.500;10.176;2024-03-08T11:02:51;35.67;;;18.10;;
7029;SDS011;3556;53.500;10.176;2024-03-08T11:05:37;30.17;;;17.17;;
7029;SDS011;3556;53.500;10.176;2024-03-08T11:08:22;34.50;;;16.80;;
7029;SDS011;3556;53.500;10.176;2024-03-08T11:10:49;30.97;;;16.07;;
7029;SDS011;3556;53.500;10.176;2024-03-08T11:13:32;35.20;;;18.00;;
7029;SDS011;3556;53.500;10.176;2024-03-08T11:16:02;31.27;;;16.97;;
7029;SDS011;3556;53.500;10.176;2024-03-08T11:18:48;30.13;;;16.33;;
7029;SDS011;3556;53.500;10.176;2024-03-08T11:21:14;33.70;;;18.03;;
7029;SDS011;3556;53.500;10.176;2024-03-08T11:23:40;28.90;;;15.80;;
7029;SDS011;3556;53.500;10.176;2024-03-08T11:26:19;30.83;;;16.77;;
7029;SDS011;3556;53.500;10.176;2024-03-08T11:28:45;31.20;;;17.03;;
7029;SDS011;3556;53.500;10.176;2024-03-08T11:33:39;30.20;;;16.40;;
7029;SDS011;3556;53.500;10.176;2024-03-08T11:36:12;30.90;;;15.87;;
7029;SDS011;3556;53.500;10.176;2024-03-08T11:38:44;28.57;;;16.37;;
7029;SDS011;3556;53.500;10.176;2024-03-08T11:41:21;30.83;;;16.07;;
7029;SDS011;3556;53.500;10.176;2024-03-08T11:43:48;29.57;;;16.73;;
7029;SDS011;3556;53.500;10.176;2024-03-08T11:46:26;36.00;;;16.90;;
7029;SDS011;3556;53.500;10.176;2024-03-08T11:48:54;34.23;;;17.10;;
7029;SDS011;3556;53.500;10.176;2024-03-08T11:51:21;30.03;;;15.37;;
7029;SDS011;3556;53.500;10.176;2024-03-08T11:53:48;28.10;;;15.57;;
7029;SDS011;3556;53.500;10.176;2024-03-08T11:56:15;27.80;;;15.83;;
7029;SDS011;3556;53.500;10.176;2024-03-08T11:58:41;29.87;;;14.87;;
7029;SDS011;3556;53.500;10.176;2024-03-08T12:01:17;28.80;;;16.27;;
7029;SDS011;3556;53.500;10.176;2024-03-08T12:03:43;30.93;;;16.00;;
7029;SDS011;3556;53.500;10.176;2024-03-08T12:06:09;31.70;;;15.87;;
7029;SDS011;3556;53.500;10.176;2024-03-08T12:08:35;29.73;;;15.87;;
7029;SDS011;3556;53.500;10.176;2024-03-08T12:11:03;30.97;;;16.07;;
7029;SDS011;3556;53.500;10.176;2024-03-08T12:13:30;26.73;;;15.90;;
7029;SDS011;3556;53.500;10.176;2024-03-08T12:16:02;26.40;;;15.00;;
7029;SDS011;3556;53.500;10.176;2024-03-08T12:18:34;28.00;;;15.07;;
7029;SDS011;3556;53.500;10.176;2024-03-08T12:21:09;30.63;;;16.13;;
7029;SDS011;3556;53.500;10.176;2024-03-08T12:23:36;25.53;;;14.27;;
7029;SDS011;3556;53.500;10.176;2024-03-08T12:26:11;25.43;;;14.73;;
7029;SDS011;3556;53.500;10.176;2024-03-08T12:28:39;29.47;;;15.60;;
7029;SDS011;3556;53.500;10.176;2024-03-08T12:31:06;33.67;;;16.40;;
7029;SDS011;3556;53.500;10.176;2024-03-08T12:33:56;25.93;;;14.90;;
7029;SDS011;3556;53.500;10.176;2024-03-08T12:36:24;32.63;;;16.67;;
7029;SDS011;3556;53.500;10.176;2024-03-08T12:38:50;29.40;;;17.03;;
7029;SDS011;3556;53.500;10.176;2024-03-08T12:41:19;31.30;;;16.20;;
7029;SDS011;3556;53.500;10.176;2024-03-08T12:43:46;31.60;;;15.13;;
7029;SDS011;3556;53.500;10.176;2024-03-08T12:46:15;25.57;;;14.37;;
7029;SDS011;3556;53.500;10.176;2024-03-08T12:48:42;24.33;;;14.60;;
7029;SDS011;3556;53.500;10.176;2024-03-08T12:51:12;24.23;;;14.93;;
7029;SDS011;3556;53.500;10.176;2024-03-08T12:53:38;23.47;;;13.50;;
7029;SDS011;3556;53.500;10.176;2024-03-08T12:56:06;27.80;;;15.17;;
7029;SDS011;3556;53.500;10.176;2024-03-08T12:58:34;23.17;;;14.20;;
7029;SDS011;3556;53.500;10.176;2024-03-08T13:01:01;28.83;;;15.17;;
7029;SDS011;3556;53.500;10.176;2024-03-08T13:03:29;28.30;;;15.13;;
7029;SDS011;3556;53.500;10.176;2024-03-08T13:05:56;26.30;;;15.40;;
7029;SDS011;3556;53.500;10.176;2024-03-08T13:08:22;26.70;;;15.30;;
7029;SDS011;3556;53.500;10.176;2024-03-08T13:10:50;24.10;;;14.60;;
7029;SDS011;3556;53.500;10.176;2024-03-08T13:13:16;26.03;;;14.43;;
7029;SDS011;3556;53.500;10.176;2024-03-08T13:15:45;24.90;;;15.60;;
7029;SDS011;3556;53.500;10.176;2024-03-08T13:18:10;26.97;;;15.20;;
7029;SDS011;3556;53.500;10.176;2024-03-08T13:20:36;22.87;;;14.17;;
7029;SDS011;3556;53.500;10.176;2024-03-08T13:23:03;25.23;;;14.40;;
7029;SDS011;3556;53.500;10.176;2024-03-08T13:25:30;20.00;;;12.80;;
7029;SDS011;3556;53.500;10.176;2024-03-08T13:27:56;21.47;;;13.20;;
7029;SDS011;3556;53.500;10.176;2024-03-08T13:30:25;21.33;;;13.47;;
7029;SDS011;3556;53.500;10.176;2024-03-08T13:32:52;26.57;;;14.40;;
7029;SDS011;3556;53.500;10.176;2024-03-08T13:35:18;30.20;;;14.00;;
7029;SDS011;3556;53.500;10.176;2024-03-08T13:37:49;25.17;;;14.80;;
7029;SDS011;3556;53.500;10.176;2024-03-08T13:40:16;22.27;;;13.50;;
7029;SDS011;3556;53.500;10.176;2024-03-08T13:42:48;23.70;;;13.13;;
7029;SDS011;3556;53.500;10.176;2024-03-08T13:45:14;23.07;;;14.63;;
7029;SDS011;3556;53.500;10.176;2024-03-08T13:47:46;24.03;;;13.20;;
7029;SDS011;3556;53.500;10.176;2024-03-08T13:50:12;24.70;;;15.00;;
7029;SDS011;3556;53.500;10.176;2024-03-08T13:52:38;22.30;;;13.63;;
7029;SDS011;3556;53.500;10.176;2024-03-08T13:55:05;23.80;;;13.60;;
7029;SDS011;3556;53.500;10.176;2024-03-08T13:57:31;25.73;;;14.23;;
7029;SDS011;3556;53.500;10.176;2024-03-08T13:59:57;26.13;;;13.90;;
7029;SDS011;3556;53.500;10.176;2024-03-08T14:02:23;25.00;;;14.90;;
7029;SDS011;3556;53.500;10.176;2024-03-08T14:04:53;26.27;;;14.30;;
7029;SDS011;3556;53.500;10.176;2024-03-08T14:07:19;20.57;;;13.17;;
7029;SDS011;3556;53.500;10.176;2024-03-08T14:09:45;21.87;;;13.77;;
7029;SDS011;3556;53.500;10.176;2024-03-08T14:12:11;20.00;;;12.50;;
7029;SDS011;3556;53.500;10.176;2024-03-08T14:14:37;20.10;;;12.67;;
7029;SDS011;3556;53.500;10.176;2024-03-08T14:17:03;23.50;;;13.80;;
7029;SDS011;3556;53.500;10.176;2024-03-08T14:19:29;23.00;;;14.30;;
7029;SDS011;3556;53.500;10.176;2024-03-08T14:21:59;21.80;;;13.20;;
7029;SDS011;3556;53.500;10.176;2024-03-08T14:24:24;21.50;;;12.73;;
7029;SDS011;3556;53.500;10.176;2024-03-08T14:26:50;21.97;;;12.67;;
7029;SDS011;3556;53.500;10.176;2024-03-08T14:29:16;19.80;;;12.57;;
7029;SDS011;3556;53.500;10.176;2024-03-08T14:31:43;20.80;;;12.37;;
7029;SDS011;3556;53.500;10.176;2024-03-08T14:34:10;22.57;;;12.97;;
7029;SDS011;3556;53.500;10.176;2024-03-08T14:36:35;19.77;;;12.43;;
7029;SDS011;3556;53.500;10.176;2024-03-08T14:39:02;23.60;;;13.03;;